sensor_id;sensor_type;location;lat;lon;timestamp;temperature;humidity
36434;DHT22;31691;51.972;5.672;2023-07-31T00:01:37;22.00;99.90
36434;DHT22;31691;51.972;5.672;2023-07-31T00:06:40;22.10;99.90
36434;DHT22;31691;51.972;5.672;2023-07-31T00:11:43;22.20;99.90
36434;DHT22;31691;51.972;5.672;2023-07-31T00:16:45;22.30;99.90
36434;DHT22;31691;51.972;5.672;2023-07-31T00:21:47;22.30;99.90
36434;DHT22;31691;51.972;5.672;2023-07-31T00:26:50;22.20;99.90
36434;DHT22;31691;51.972;5.672;2023-07-31T00:31:52;22.20;99.90
36434;DHT22;31691;51.972;5.672;2023-07-31T00:36:54;22.30;99.90
36434;DHT22;31691;51.972;5.672;2023-07-31T00:41:56;22.20;99.90
36434;DHT22;31691;51.972;5.672;2023-07-31T00:46:59;22.00;99.90
36434;DHT22;31691;51.972;5.672;2023-07-31T00:52:01;21.90;99.90
36434;DHT22;31691;51.972;5.672;2023-07-31T00:57:04;21.90;99.90
36434;DHT22;31691;51.972;5.672;2023-07-31T01:02:07;21.90;99.90
36434;DHT22;31691;51.972;5.672;2023-07-31T01:12:27;22.00;99.90
36434;DHT22;31691;51.972;5.672;2023-07-31T01:17:31;22.10;99.90
36434;DHT22;31691;51.972;5.672;2023-07-31T01:28:11;22.20;99.90
36434;DHT22;31691;51.972;5.672;2023-07-31T01:33:16;22.20;99.90
36434;DHT22;31691;51.972;5.672;2023-07-31T01:38:21;22.00;99.90
36434;DHT22;31691;51.972;5.672;2023-07-31T01:43:24;22.10;99.90
36434;DHT22;31691;51.972;5.672;2023-07-31T01:48:26;22.20;99.90
36434;DHT22;31691;51.972;5.672;2023-07-31T01:53:31;22.20;99.90
36434;DHT22;31691;51.972;5.672;2023-07-31T01:58:33;22.20;99.90
36434;DHT22;31691;51.972;5.672;2023-07-31T02:03:35;21.90;99.90
36434;DHT22;31691;51.972;5.672;2023-07-31T02:08:37;21.80;99.90
36434;DHT22;31691;51.972;5.672;2023-07-31T02:13:39;22.00;99.90
36434;DHT22;31691;51.972;5.672;2023-07-31T02:18:41;21.90;99.90
36434;DHT22;31691;51.972;5.672;2023-07-31T02:23:44;21.90;99.90
36434;DHT22;31691;51.972;5.672;2023-07-31T02:28:46;22.20;99.90
36434;DHT22;31691;51.972;5.672;2023-07-31T02:33:48;22.20;99.90
36434;DHT22;31691;51.972;5.672;2023-07-31T02:38:51;22.50;99.90
36434;DHT22;31691;51.972;5.672;2023-07-31T02:43:53;22.60;99.90
36434;DHT22;31691;51.972;5.672;2023-07-31T02:48:55;22.60;99.90
36434;DHT22;31691;51.972;5.672;2023-07-31T02:53:57;22.30;99.90
36434;DHT22;31691;51.972;5.672;2023-07-31T02:58:59;22.30;99.90
36434;DHT22;31691;51.972;5.672;2023-07-31T03:04:01;22.40;99.90
36434;DHT22;31691;51.972;5.672;2023-07-31T03:09:03;22.30;99.90
36434;DHT22;31691;51.972;5.672;2023-07-31T03:14:05;22.00;99.90
36434;DHT22;31691;51.972;5.672;2023-07-31T03:19:08;21.90;99.90
36434;DHT22;31691;51.972;5.672;2023-07-31T03:24:10;21.80;99.90
36434;DHT22;31691;51.972;5.672;2023-07-31T03:29:14;21.70;99.90
36434;DHT22;31691;51.972;5.672;2023-07-31T03:34:16;21.60;99.90
36434;DHT22;31691;51.972;5.672;2023-07-31T03:39:18;21.60;99.90
36434;DHT22;31691;51.972;5.672;2023-07-31T03:44:20;21.90;99.90
36434;DHT22;31691;51.972;5.672;2023-07-31T03:49:22;21.90;99.90
36434;DHT22;31691;51.972;5.672;2023-07-31T03:54:25;21.90;99.90
36434;DHT22;31691;51.972;5.672;2023-07-31T03:59:27;21.70;99.90
36434;DHT22;31691;51.972;5.672;2023-07-31T04:04:29;21.60;99.90
36434;DHT22;31691;51.972;5.672;2023-07-31T04:09:33;21.80;99.90
36434;DHT22;31691;51.972;5.672;2023-07-31T04:14:35;21.80;99.90
36434;DHT22;31691;51.972;5.672;2023-07-31T04:19:37;21.90;99.90
36434;DHT22;31691;51.972;5.672;2023-07-31T04:24:39;22.00;99.90
36434;DHT22;31691;51.972;5.672;2023-07-31T04:29:41;22.30;99.90
36434;DHT22;31691;51.972;5.672;2023-07-31T04:34:44;22.30;99.90
36434;DHT22;31691;51.972;5.672;2023-07-31T04:39:46;22.30;99.90
36434;DHT22;31691;51.972;5.672;2023-07-31T04:44:48;22.30;99.90
36434;DHT22;31691;51.972;5.672;2023-07-31T04:49:51;22.40;99.90
36434;DHT22;31691;51.972;5.672;2023-07-31T04:54:53;22.60;99.90
36434;DHT22;31691;51.972;5.672;2023-07-31T04:59:55;22.60;99.90
36434;DHT22;31691;51.972;5.672;2023-07-31T05:04:57;22.60;99.90
36434;DHT22;31691;51.972;5.672;2023-07-31T05:09:59;22.30;99.90
36434;DHT22;31691;51.972;5.672;2023-07-31T05:15:01;22.40;99.90
36434;DHT22;31691;51.972;5.672;2023-07-31T05:20:04;22.60;99.90
36434;DHT22;31691;51.972;5.672;2023-07-31T05:25:07;22.30;99.90
36434;DHT22;31691;51.972;5.672;2023-07-31T05:30:09;22.40;99.90
36434;DHT22;31691;51.972;5.672;2023-07-31T05:35:11;22.50;99.90
36434;DHT22;31691;51.972;5.672;2023-07-31T05:40:14;22.50;99.90
36434;DHT22;31691;51.972;5.672;2023-07-31T05:45:16;22.20;99.90
36434;DHT22;31691;51.972;5.672;2023-07-31T05:50:18;22.10;99.90
36434;DHT22;31691;51.972;5.672;2023-07-31T05:55:20;21.70;99.90
36434;DHT22;31691;51.972;5.672;2023-07-31T06:00:23;21.80;99.90
36434;DHT22;31691;51.972;5.672;2023-07-31T06:05:25;21.90;99.90
36434;DHT22;31691;51.972;5.672;2023-07-31T06:10:28;22.10;99.90
36434;DHT22;31691;51.972;5.672;2023-07-31T06:15:30;22.00;99.90
36434;DHT22;31691;51.972;5.672;2023-07-31T06:20:33;22.10;99.90
36434;DHT22;31691;51.972;5.672;2023-07-31T06:25:35;22.10;99.90
36434;DHT22;31691;51.972;5.672;2023-07-31T06:30:37;22.20;99.90
36434;DHT22;31691;51.972;5.672;2023-07-31T06:35:39;22.40;99.90
36434;DHT22;31691;51.972;5.672;2023-07-31T06:40:42;22.30;99.90
36434;DHT22;31691;51.972;5.672;2023-07-31T06:45:44;22.20;99.90
36434;DHT22;31691;51.972;5.672;2023-07-31T06:50:46;22.10;99.90
36434;DHT22;31691;51.972;5.672;2023-07-31T06:55:48;21.90;99.90
36434;DHT22;31691;51.972;5.672;2023-07-31T07:00:53;21.90;99.90
36434;DHT22;31691;51.972;5.672;2023-07-31T07:05:55;22.10;99.90
36434;DHT22;31691;51.972;5.672;2023-07-31T07:10:57;22.10;99.90
36434;DHT22;31691;51.972;5.672;2023-07-31T07:15:59;22.20;99.90
36434;DHT22;31691;51.972;5.672;2023-07-31T07:21:02;22.10;99.90
36434;DHT22;31691;51.972;5.672;2023-07-31T07:26:05;22.20;99.90
36434;DHT22;31691;51.972;5.672;2023-07-31T07:31:07;22.60;99.90
36434;DHT22;31691;51.972;5.672;2023-07-31T07:36:09;22.70;99.90
36434;DHT22;31691;51.972;5.672;2023-07-31T07:41:12;22.60;99.90
36434;DHT22;31691;51.972;5.672;2023-07-31T07:46:14;22.60;99.90
36434;DHT22;31691;51.972;5.672;2023-07-31T07:51:16;22.40;99.90
36434;DHT22;31691;51.972;5.672;2023-07-31T07:56:18;22.40;99.90
36434;DHT22;31691;51.972;5.672;2023-07-31T08:01:20;22.40;99.90
36434;DHT22;31691;51.972;5.672;2023-07-31T08:06:22;22.60;99.90
36434;DHT22;31691;51.972;5.672;2023-07-31T08:11:25;22.70;99.90
36434;DHT22;31691;51.972;5.672;2023-07-31T08:16:27;22.70;99.90
36434;DHT22;31691;51.972;5.672;2023-07-31T08:21:29;22.70;99.90
36434;DHT22;31691;51.972;5.672;2023-07-31T08:26:31;22.50;99.90
36434;DHT22;31691;51.972;5.672;2023-07-31T08:31:34;22.60;99.90
36434;DHT22;31691;51.972;5.672;2023-07-31T08:36:36;22.90;99.90
36434;DHT22;31691;51.972;5.672;2023-07-31T08:41:39;23.00;99.90
36434;DHT22;31691;51.972;5.672;2023-07-31T08:46:41;23.20;99.90
36434;DHT22;31691;51.972;5.672;2023-07-31T08:51:45;23.10;99.90
36434;DHT22;31691;51.972;5.672;2023-07-31T08:56:49;23.20;99.90
36434;DHT22;31691;51.972;5.672;2023-07-31T09:01:53;22.90;99.90
36434;DHT22;31691;51.972;5.672;2023-07-31T09:06:59;22.90;99.90
36434;DHT22;31691;51.972;5.672;2023-07-31T09:12:03;23.10;99.90
36434;DHT22;31691;51.972;5.672;2023-07-31T09:17:06;23.20;99.90
36434;DHT22;31691;51.972;5.672;2023-07-31T09:22:08;23.00;99.90
36434;DHT22;31691;51.972;5.672;2023-07-31T09:27:10;22.70;99.90
36434;DHT22;31691;51.972;5.672;2023-07-31T09:32:19;22.90;99.90
36434;DHT22;31691;51.972;5.672;2023-07-31T09:37:21;22.90;99.90
36434;DHT22;31691;51.972;5.672;2023-07-31T09:42:24;22.80;99.90
36434;DHT22;31691;51.972;5.672;2023-07-31T09:47:27;22.90;99.90
36434;DHT22;31691;51.972;5.672;2023-07-31T09:52:29;23.10;99.90
36434;DHT22;31691;51.972;5.672;2023-07-31T09:57:31;23.20;99.90
36434;DHT22;31691;51.972;5.672;2023-07-31T10:02:35;23.20;99.90
36434;DHT22;31691;51.972;5.672;2023-07-31T10:07:39;23.40;99.90
36434;DHT22;31691;51.972;5.672;2023-07-31T10:12:45;23.50;99.90
36434;DHT22;31691;51.972;5.672;2023-07-31T10:17:48;23.40;99.90
36434;DHT22;31691;51.972;5.672;2023-07-31T10:22:51;23.60;99.90
36434;DHT22;31691;51.972;5.672;2023-07-31T10:27:54;23.80;99.90
36434;DHT22;31691;51.972;5.672;2023-07-31T10:32:56;23.90;99.90
36434;DHT22;31691;51.972;5.672;2023-07-31T10:38:14;23.80;99.90
36434;DHT22;31691;51.972;5.672;2023-07-31T10:43:24;23.80;99.90
36434;DHT22;31691;51.972;5.672;2023-07-31T10:48:33;23.70;99.90
36434;DHT22;31691;51.972;5.672;2023-07-31T10:53:36;24.00;99.90
36434;DHT22;31691;51.972;5.672;2023-07-31T10:58:39;23.90;99.90
36434;DHT22;31691;51.972;5.672;2023-07-31T11:03:50;24.30;99.90
36434;DHT22;31691;51.972;5.672;2023-07-31T11:08:54;24.30;99.90
36434;DHT22;31691;51.972;5.672;2023-07-31T11:13:57;23.80;99.90
36434;DHT22;31691;51.972;5.672;2023-07-31T11:18:59;24.10;99.90
36434;DHT22;31691;51.972;5.672;2023-07-31T11:24:01;24.60;99.90
36434;DHT22;31691;51.972;5.672;2023-07-31T11:29:11;24.60;99.90
36434;DHT22;31691;51.972;5.672;2023-07-31T11:34:13;24.50;99.90
36434;DHT22;31691;51.972;5.672;2023-07-31T11:39:15;24.40;99.90
36434;DHT22;31691;51.972;5.672;2023-07-31T11:44:17;24.00;99.90
36434;DHT22;31691;51.972;5.672;2023-07-31T11:49:29;24.00;99.90
36434;DHT22;31691;51.972;5.672;2023-07-31T11:54:31;24.20;99.90
36434;DHT22;31691;51.972;5.672;2023-07-31T11:59:34;24.70;99.90
36434;DHT22;31691;51.972;5.672;2023-07-31T12:04:36;24.70;99.90
36434;DHT22;31691;51.972;5.672;2023-07-31T12:09:51;24.30;99.90
36434;DHT22;31691;51.972;5.672;2023-07-31T12:14:55;24.20;99.90
36434;DHT22;31691;51.972;5.672;2023-07-31T12:19:57;24.50;99.90
36434;DHT22;31691;51.972;5.672;2023-07-31T12:25:02;24.60;99.90
36434;DHT22;31691;51.972;5.672;2023-07-31T12:30:05;24.50;99.90
36434;DHT22;31691;51.972;5.672;2023-07-31T12:35:08;24.30;99.90
36434;DHT22;31691;51.972;5.672;2023-07-31T12:40:11;24.30;99.90
36434;DHT22;31691;51.972;5.672;2023-07-31T12:45:13;24.40;99.90
36434;DHT22;31691;51.972;5.672;2023-07-31T12:50:15;24.50;99.90
36434;DHT22;31691;51.972;5.672;2023-07-31T12:55:17;24.50;99.90
36434;DHT22;31691;51.972;5.672;2023-07-31T13:00:20;25.10;99.90
36434;DHT22;31691;51.972;5.672;2023-07-31T13:05:23;25.50;99.90
36434;DHT22;31691;51.972;5.672;2023-07-31T13:10:25;25.10;99.90
36434;DHT22;31691;51.972;5.672;2023-07-31T13:15:29;25.30;99.90
36434;DHT22;31691;51.972;5.672;2023-07-31T13:20:31;25.00;99.90
36434;DHT22;31691;51.972;5.672;2023-07-31T13:25:33;25.00;99.90
36434;DHT22;31691;51.972;5.672;2023-07-31T13:30:36;25.00;99.90
36434;DHT22;31691;51.972;5.672;2023-07-31T13:35:38;25.00;99.90
36434;DHT22;31691;51.972;5.672;2023-07-31T13:40:40;24.80;99.90
36434;DHT22;31691;51.972;5.672;2023-07-31T13:45:42;24.80;99.90
36434;DHT22;31691;51.972;5.672;2023-07-31T13:50:44;24.80;99.90
36434;DHT22;31691;51.972;5.672;2023-07-31T13:55:47;24.70;99.90
36434;DHT22;31691;51.972;5.672;2023-07-31T14:00:51;24.50;99.90
36434;DHT22;31691;51.972;5.672;2023-07-31T14:05:54;24.60;99.90
36434;DHT22;31691;51.972;5.672;2023-07-31T14:10:57;24.40;99.90
36434;DHT22;31691;51.972;5.672;2023-07-31T14:15:59;24.40;99.90
36434;DHT22;31691;51.972;5.672;2023-07-31T14:21:02;24.30;99.90
36434;DHT22;31691;51.972;5.672;2023-07-31T14:26:04;24.20;99.90
36434;DHT22;31691;51.972;5.672;2023-07-31T14:31:06;24.10;99.90
36434;DHT22;31691;51.972;5.672;2023-07-31T14:36:09;23.90;99.90
36434;DHT22;31691;51.972;5.672;2023-07-31T14:41:11;24.00;99.90
36434;DHT22;31691;51.972;5.672;2023-07-31T14:46:13;24.50;99.90
36434;DHT22;31691;51.972;5.672;2023-07-31T14:51:16;24.40;99.90
36434;DHT22;31691;51.972;5.672;2023-07-31T14:56:19;24.30;99.90
36434;DHT22;31691;51.972;5.672;2023-07-31T15:01:21;24.60;99.90
36434;DHT22;31691;51.972;5.672;2023-07-31T15:06:24;24.40;99.90
36434;DHT22;31691;51.972;5.672;2023-07-31T15:11:26;24.30;99.90
36434;DHT22;31691;51.972;5.672;2023-07-31T15:16:28;24.10;99.90
36434;DHT22;31691;51.972;5.672;2023-07-31T15:21:32;24.10;99.90
36434;DHT22;31691;51.972;5.672;2023-07-31T15:26:34;24.10;99.90
36434;DHT22;31691;51.972;5.672;2023-07-31T15:31:38;24.00;99.90
36434;DHT22;31691;51.972;5.672;2023-07-31T15:36:41;24.30;99.90
36434;DHT22;31691;51.972;5.672;2023-07-31T15:41:43;24.40;99.90
36434;DHT22;31691;51.972;5.672;2023-07-31T15:46:45;24.30;99.90
36434;DHT22;31691;51.972;5.672;2023-07-31T15:51:48;24.00;99.90
36434;DHT22;31691;51.972;5.672;2023-07-31T15:56:50;23.80;99.90
36434;DHT22;31691;51.972;5.672;2023-07-31T16:01:52;23.70;99.90
36434;DHT22;31691;51.972;5.672;2023-07-31T16:06:55;23.70;99.90
36434;DHT22;31691;51.972;5.672;2023-07-31T16:11:57;23.60;99.90
36434;DHT22;31691;51.972;5.672;2023-07-31T16:16:59;23.60;99.90
36434;DHT22;31691;51.972;5.672;2023-07-31T16:22:01;23.70;99.90
36434;DHT22;31691;51.972;5.672;2023-07-31T16:27:04;23.40;99.90
36434;DHT22;31691;51.972;5.672;2023-07-31T16:32:06;23.40;99.90
36434;DHT22;31691;51.972;5.672;2023-07-31T16:37:13;23.50;99.90
36434;DHT22;31691;51.972;5.672;2023-07-31T16:42:15;23.40;99.90
36434;DHT22;31691;51.972;5.672;2023-07-31T16:47:17;23.40;99.90
36434;DHT22;31691;51.972;5.672;2023-07-31T16:52:19;23.40;99.90
36434;DHT22;31691;51.972;5.672;2023-07-31T16:57:21;23.60;99.90
36434;DHT22;31691;51.972;5.672;2023-07-31T17:02:26;23.70;99.90
36434;DHT22;31691;51.972;5.672;2023-07-31T17:07:28;23.60;99.90
36434;DHT22;31691;51.972;5.672;2023-07-31T17:12:30;23.70;99.90
36434;DHT22;31691;51.972;5.672;2023-07-31T17:17:32;23.70;99.90
36434;DHT22;31691;51.972;5.672;2023-07-31T17:22:35;23.60;99.90
36434;DHT22;31691;51.972;5.672;2023-07-31T17:27:49;23.50;99.90
36434;DHT22;31691;51.972;5.672;2023-07-31T17:32:54;23.30;99.90
36434;DHT22;31691;51.972;5.672;2023-07-31T17:37:56;23.40;99.90
36434;DHT22;31691;51.972;5.672;2023-07-31T17:43:00;23.60;99.90
36434;DHT22;31691;51.972;5.672;2023-07-31T17:48:02;23.50;99.90
36434;DHT22;31691;51.972;5.672;2023-07-31T17:53:05;23.40;99.90
36434;DHT22;31691;51.972;5.672;2023-07-31T17:58:08;23.20;99.90
36434;DHT22;31691;51.972;5.672;2023-07-31T18:03:11;23.00;99.90
36434;DHT22;31691;51.972;5.672;2023-07-31T18:08:15;23.00;99.90
36434;DHT22;31691;51.972;5.672;2023-07-31T18:13:17;23.10;99.90
36434;DHT22;31691;51.972;5.672;2023-07-31T18:18:19;23.00;99.90
36434;DHT22;31691;51.972;5.672;2023-07-31T18:23:22;23.20;99.90
36434;DHT22;31691;51.972;5.672;2023-07-31T18:28:24;23.10;99.90
36434;DHT22;31691;51.972;5.672;2023-07-31T18:33:26;23.20;99.90
36434;DHT22;31691;51.972;5.672;2023-07-31T18:38:29;23.20;99.90
36434;DHT22;31691;51.972;5.672;2023-07-31T18:43:34;23.30;99.90
36434;DHT22;31691;51.972;5.672;2023-07-31T18:48:36;23.40;99.90
36434;DHT22;31691;51.972;5.672;2023-07-31T18:53:38;23.50;99.90
36434;DHT22;31691;51.972;5.672;2023-07-31T18:58:40;23.40;99.90
36434;DHT22;31691;51.972;5.672;2023-07-31T19:03:43;23.50;99.90
36434;DHT22;31691;51.972;5.672;2023-07-31T19:08:45;23.80;99.90
36434;DHT22;31691;51.972;5.672;2023-07-31T19:13:47;24.00;99.90
36434;DHT22;31691;51.972;5.672;2023-07-31T19:18:49;24.00;99.90
36434;DHT22;31691;51.972;5.672;2023-07-31T19:23:51;23.80;99.90
36434;DHT22;31691;51.972;5.672;2023-07-31T19:28:53;23.80;99.90
36434;DHT22;31691;51.972;5.672;2023-07-31T19:33:56;23.80;99.90
36434;DHT22;31691;51.972;5.672;2023-07-31T19:38:58;23.90;99.90
36434;DHT22;31691;51.972;5.672;2023-07-31T19:44:00;24.10;99.90
36434;DHT22;31691;51.972;5.672;2023-07-31T19:49:02;24.10;99.90
36434;DHT22;31691;51.972;5.672;2023-07-31T19:54:07;24.10;99.90
36434;DHT22;31691;51.972;5.672;2023-07-31T19:59:09;24.10;99.90
36434;DHT22;31691;51.972;5.672;2023-07-31T20:04:11;24.20;99.90
36434;DHT22;31691;51.972;5.672;2023-07-31T20:09:13;24.00;99.90
36434;DHT22;31691;51.972;5.672;2023-07-31T20:14:16;24.00;99.90
36434;DHT22;31691;51.972;5.672;2023-07-31T20:19:18;24.00;99.90
36434;DHT22;31691;51.972;5.672;2023-07-31T20:24:20;24.00;99.90
36434;DHT22;31691;51.972;5.672;2023-07-31T20:29:22;23.90;99.90
36434;DHT22;31691;51.972;5.672;2023-07-31T20:34:24;23.90;99.90
36434;DHT22;31691;51.972;5.672;2023-07-31T20:39:26;23.80;99.90
36434;DHT22;31691;51.972;5.672;2023-07-31T20:44:29;23.80;99.90
36434;DHT22;31691;51.972;5.672;2023-07-31T20:49:31;23.80;99.90
36434;DHT22;31691;51.972;5.672;2023-07-31T20:54:33;23.80;99.90
36434;DHT22;31691;51.972;5.672;2023-07-31T20:59:35;23.70;99.90
36434;DHT22;31691;51.972;5.672;2023-07-31T21:04:39;23.60;99.90
36434;DHT22;31691;51.972;5.672;2023-07-31T21:09:42;23.70;99.90
36434;DHT22;31691;51.972;5.672;2023-07-31T21:14:46;23.80;99.90
36434;DHT22;31691;51.972;5.672;2023-07-31T21:19:48;23.70;99.90
36434;DHT22;31691;51.972;5.672;2023-07-31T21:24:51;23.60;99.90
36434;DHT22;31691;51.972;5.672;2023-07-31T21:29:54;23.60;99.90
36434;DHT22;31691;51.972;5.672;2023-07-31T21:34:56;23.50;99.90
36434;DHT22;31691;51.972;5.672;2023-07-31T21:39:58;23.50;99.90
36434;DHT22;31691;51.972;5.672;2023-07-31T21:45:00;23.50;99.90
36434;DHT22;31691;51.972;5.672;2023-07-31T21:50:03;23.60;99.90
36434;DHT22;31691;51.972;5.672;2023-07-31T21:55:06;23.60;99.90
36434;DHT22;31691;51.972;5.672;2023-07-31T22:00:09;23.60;99.90
36434;DHT22;31691;51.972;5.672;2023-07-31T22:05:12;23.60;99.90
36434;DHT22;31691;51.972;5.672;2023-07-31T22:10:14;23.60;99.90
36434;DHT22;31691;51.972;5.672;2023-07-31T22:15:17;23.60;99.90
36434;DHT22;31691;51.972;5.672;2023-07-31T22:20:19;23.60;99.90
36434;DHT22;31691;51.972;5.672;2023-07-31T22:25:21;23.50;99.90
36434;DHT22;31691;51.972;5.672;2023-07-31T22:30:24;23.50;99.90
36434;DHT22;31691;51.972;5.672;2023-07-31T22:35:26;23.60;99.90
36434;DHT22;31691;51.972;5.672;2023-07-31T22:40:28;23.40;99.90
36434;DHT22;31691;51.972;5.672;2023-07-31T22:45:30;23.40;99.90
36434;DHT22;31691;51.972;5.672;2023-07-31T22:50:35;23.40;99.90
36434;DHT22;31691;51.972;5.672;2023-07-31T22:55:37;23.40;99.90
36434;DHT22;31691;51.972;5.672;2023-07-31T23:00:40;23.00;99.90
36434;DHT22;31691;51.972;5.672;2023-07-31T23:05:43;23.20;99.90
36434;DHT22;31691;51.972;5.672;2023-07-31T23:10:48;23.30;99.90
36434;DHT22;31691;51.972;5.672;2023-07-31T23:15:51;23.30;99.90
36434;DHT22;31691;51.972;5.672;2023-07-31T23:20:53;23.30;99.90
36434;DHT22;31691;51.972;5.672;2023-07-31T23:25:58;23.30;99.90
36434;DHT22;31691;51.972;5.672;2023-07-31T23:31:01;23.40;99.90
36434;DHT22;31691;51.972;5.672;2023-07-31T23:36:11;23.40;99.90
36434;DHT22;31691;51.972;5.672;2023-07-31T23:41:13;23.40;99.90
36434;DHT22;31691;51.972;5.672;2023-07-31T23:46:16;23.50;99.90
36434;DHT22;31691;51.972;5.672;2023-07-31T23:51:18;23.50;99.90
36434;DHT22;31691;51.972;5.672;2023-07-31T23:56:20;23.40;99.90
